createdAt,value
2019-06-10T00:00:22.632Z,15.65
2019-06-10T00:02:50.812Z,15.55
2019-06-10T00:05:17.637Z,15.42
2019-06-10T00:07:44.512Z,15.43
2019-06-10T00:10:13.398Z,15.63
2019-06-10T00:12:41.956Z,15.64
2019-06-10T00:15:10.825Z,15.41
2019-06-10T00:17:52.394Z,15.66
2019-06-10T00:20:08.205Z,15.63
2019-06-10T00:22:35.273Z,15.61
2019-06-10T00:25:05.807Z,15.69
2019-06-10T00:27:33.343Z,15.61
2019-06-10T00:30:02.591Z,15.65
2019-06-10T00:32:32.020Z,15.52
2019-06-10T00:34:59.411Z,15.60
2019-06-10T00:37:27.119Z,15.52
2019-06-10T00:39:54.122Z,15.58
2019-06-10T00:42:21.599Z,15.69
2019-06-10T00:44:50.802Z,15.66
2019-06-10T00:47:17.049Z,15.67
2019-06-10T00:49:43.664Z,15.53
2019-06-10T00:52:12.159Z,15.51
2019-06-10T00:54:41.578Z,15.57
2019-06-10T00:57:07.741Z,15.44
2019-06-10T00:59:34.455Z,15.49
2019-06-10T01:02:02.960Z,15.45
2019-06-10T01:04:31.884Z,15.47
2019-06-10T01:07:00.627Z,15.51
2019-06-10T01:09:27.021Z,15.50
2019-06-10T01:11:53.933Z,15.56
2019-06-10T01:14:21.520Z,15.49
2019-06-10T01:16:50.638Z,15.49
2019-06-10T01:19:17.729Z,15.47
2019-06-10T01:21:44.364Z,15.47
2019-06-10T01:24:12.101Z,15.49
2019-06-10T01:26:41.189Z,15.52
2019-06-10T01:29:08.242Z,15.46
2019-06-10T01:31:34.856Z,15.48
2019-06-10T01:34:05.491Z,15.57
2019-06-10T01:36:32.246Z,15.46
2019-06-10T01:39:01.401Z,15.39
2019-06-10T01:41:27.583Z,15.31
2019-06-10T01:43:54.208Z,15.24
2019-06-10T01:46:21.267Z,15.17
2019-06-10T01:48:48.636Z,15.21
2019-06-10T01:51:17.436Z,15.24
2019-06-10T01:53:46.028Z,15.30
2019-06-10T01:56:15.461Z,15.16
2019-06-10T01:58:41.623Z,15.27
2019-06-10T02:01:13.431Z,15.30
2019-06-10T02:03:41.379Z,15.25
2019-06-10T02:06:08.785Z,15.27
2019-06-10T02:08:35.741Z,15.27
2019-06-10T02:11:02.593Z,15.25
2019-06-10T02:14:25.763Z,15.02
2019-06-10T02:16:53.477Z,14.98
2019-06-10T02:19:22.783Z,15.06
2019-06-10T02:21:50.942Z,14.93
2019-06-10T02:24:17.957Z,14.80
2019-06-10T02:26:45.968Z,14.74
2019-06-10T02:29:14.300Z,14.55
2019-06-10T02:31:43.296Z,14.82
2019-06-10T02:34:13.358Z,15.03
2019-06-10T02:36:38.708Z,15.15
2019-06-10T02:39:07.488Z,15.13
2019-06-10T02:41:36.612Z,15.17
2019-06-10T02:44:05.791Z,15.08
2019-06-10T02:46:35.971Z,15.01
2019-06-10T02:49:17.599Z,14.82
2019-06-10T02:51:31.444Z,14.58
2019-06-10T02:53:58.546Z,14.89
2019-06-10T02:56:28.413Z,14.97
2019-06-10T02:58:54.043Z,14.81
2019-06-10T03:01:23.331Z,14.89
2019-06-10T03:03:53.326Z,14.68
2019-06-10T03:06:21.324Z,14.78
2019-06-10T03:08:46.993Z,14.73
2019-06-10T03:11:14.311Z,14.86
2019-06-10T03:13:42.631Z,14.94
2019-06-10T03:16:10.304Z,14.78
2019-06-10T03:18:36.991Z,14.68
2019-06-10T03:21:03.703Z,14.93
2019-06-10T03:23:32.110Z,14.95
2019-06-10T03:26:00.225Z,14.95
2019-06-10T03:28:27.806Z,15.01
2019-06-10T03:30:58.963Z,14.93
2019-06-10T03:33:31.522Z,14.78
2019-06-10T03:35:52.916Z,14.97
2019-06-10T03:38:23.096Z,15.14
2019-06-10T03:40:49.355Z,15.17
2019-06-10T03:43:16.703Z,15.30
2019-06-10T03:45:45.293Z,15.43
2019-06-10T03:48:13.126Z,15.45
2019-06-10T03:50:43.149Z,15.61
2019-06-10T03:53:12.655Z,15.73
2019-06-10T03:55:38.692Z,15.81
2019-06-10T03:58:05.356Z,16.03
2019-06-10T04:00:32.707Z,16.15
2019-06-10T04:02:59.838Z,16.10
2019-06-10T04:05:27.399Z,16.18
2019-06-10T04:07:55.073Z,16.22
2019-06-10T04:10:24.408Z,16.31
2019-06-10T04:12:52.368Z,16.64
2019-06-10T04:15:19.746Z,16.70
2019-06-10T04:17:46.436Z,16.82
2019-06-10T04:20:15.582Z,17.06
2019-06-10T04:22:44.489Z,17.17
2019-06-10T04:25:12.215Z,17.16
2019-06-10T04:27:39.133Z,17.31
2019-06-10T04:30:06.410Z,17.57
2019-06-10T04:32:33.122Z,17.71
2019-06-10T04:35:02.094Z,17.86
2019-06-10T04:37:29.483Z,17.82
2019-06-10T04:39:57.585Z,17.91
2019-06-10T04:42:26.100Z,18.08
2019-06-10T04:44:53.309Z,18.11
2019-06-10T04:47:21.314Z,18.31
2019-06-10T04:49:48.629Z,18.53
2019-06-10T04:52:15.181Z,18.69
2019-06-10T04:54:42.189Z,18.53
2019-06-10T04:57:09.034Z,18.78
2019-06-10T04:59:35.646Z,19.08
2019-06-10T05:02:05.520Z,19.05
2019-06-10T05:04:32.890Z,19.16
2019-06-10T05:07:02.129Z,19.38
2019-06-10T05:09:30.583Z,19.63
2019-06-10T05:12:02.832Z,19.79
2019-06-10T05:14:30.366Z,19.90
2019-06-10T05:16:58.431Z,20.08
2019-06-10T05:19:26.433Z,20.10
2019-06-10T05:21:53.870Z,20.19
2019-06-10T05:24:24.671Z,20.23
2019-06-10T05:26:49.119Z,20.35
2019-06-10T05:29:15.942Z,20.24
2019-06-10T05:31:43.621Z,20.40
2019-06-10T05:34:13.044Z,20.67
2019-06-10T05:36:39.485Z,20.74
2019-06-10T05:39:06.435Z,20.74
2019-06-10T05:41:35.103Z,20.55
2019-06-10T05:44:02.701Z,20.73
2019-06-10T05:46:30.289Z,20.59
2019-06-10T05:48:58.319Z,20.92
2019-06-10T05:51:26.402Z,21.06
2019-06-10T05:53:53.402Z,21.23
2019-06-10T05:56:21.935Z,21.21
2019-06-10T05:58:48.468Z,21.33
2019-06-10T06:01:15.128Z,21.60
2019-06-10T06:03:43.845Z,22.08
2019-06-10T06:06:12.489Z,22.02
2019-06-10T06:08:39.437Z,22.04
2019-06-10T06:11:06.314Z,22.20
2019-06-10T06:13:35.915Z,22.45
2019-06-10T06:16:03.380Z,22.53
2019-06-10T06:18:33.196Z,22.77
2019-06-10T06:20:59.156Z,22.67
2019-06-10T06:23:26.899Z,22.67
2019-06-10T06:25:54.109Z,23.37
2019-06-10T06:28:22.906Z,23.60
2019-06-10T06:30:49.647Z,23.52
2019-06-10T06:33:16.366Z,23.49
2019-06-10T06:35:46.358Z,23.55
2019-06-10T06:38:12.983Z,23.91
2019-06-10T06:40:39.888Z,23.94
2019-06-10T06:43:06.664Z,24.23
2019-06-10T06:45:35.862Z,24.71
2019-06-10T06:48:03.017Z,24.60
2019-06-10T06:50:30.843Z,24.72
2019-06-10T06:53:19.742Z,24.71
2019-06-10T06:55:28.422Z,25.11
2019-06-10T06:57:55.544Z,25.25
2019-06-10T07:00:43.150Z,25.52
2019-06-10T07:02:56.400Z,25.49
2019-06-10T07:05:23.018Z,25.76
2019-06-10T07:07:52.732Z,25.79
2019-06-10T07:10:22.714Z,25.68
2019-06-10T07:12:52.338Z,26.11
2019-06-10T07:15:24.989Z,25.99
2019-06-10T07:17:52.636Z,25.90
2019-06-10T07:20:23.025Z,25.61
2019-06-10T07:22:49.879Z,25.48
2019-06-10T07:25:16.582Z,25.91
2019-06-10T07:27:46.460Z,26.11
2019-06-10T07:30:15.034Z,26.34
2019-06-10T07:32:46.850Z,26.53
2019-06-10T07:35:12.839Z,26.39
2019-06-10T07:37:39.441Z,26.02
2019-06-10T07:40:07.364Z,26.27
2019-06-10T07:42:34.889Z,26.38
2019-06-10T07:45:05.810Z,26.84
2019-06-10T07:47:33.837Z,26.53
2019-06-10T07:50:03.022Z,27.03
2019-06-10T07:52:29.699Z,26.88
2019-06-10T07:54:56.279Z,26.42
2019-06-10T07:57:22.935Z,26.69
2019-06-10T07:59:52.095Z,27.32
2019-06-10T08:02:18.125Z,27.34
2019-06-10T08:04:46.013Z,26.85
2019-06-10T08:07:13.255Z,27.19
2019-06-10T08:09:41.681Z,27.32
2019-06-10T08:12:08.743Z,27.40
2019-06-10T08:14:35.463Z,27.03
2019-06-10T08:17:03.107Z,26.83
2019-06-10T08:19:35.848Z,26.96
2019-06-10T08:21:58.690Z,27.03
2019-06-10T08:24:25.409Z,27.17
2019-06-10T08:26:53.031Z,26.95
2019-06-10T08:29:19.906Z,27.07
2019-06-10T08:31:48.460Z,27.07
2019-06-10T08:34:15.302Z,27.04
2019-06-10T08:36:46.108Z,27.26
2019-06-10T08:39:15.078Z,27.73
2019-06-10T08:41:40.597Z,27.78
2019-06-10T08:45:04.371Z,27.60
2019-06-10T08:47:32.622Z,27.59
2019-06-10T08:49:59.565Z,27.83
2019-06-10T08:52:26.636Z,28.07
2019-06-10T08:54:54.428Z,27.91
2019-06-10T08:57:23.895Z,28.02
2019-06-10T08:59:53.166Z,28.38
2019-06-10T09:02:19.032Z,28.32
2019-06-10T09:04:48.805Z,28.34
2019-06-10T09:07:14.551Z,28.60
2019-06-10T09:09:43.772Z,28.78
2019-06-10T09:12:27.722Z,28.68
2019-06-10T09:14:38.697Z,28.76
2019-06-10T09:17:05.492Z,28.95
2019-06-10T09:19:33.177Z,28.68
2019-06-10T09:22:03.228Z,28.67
2019-06-10T09:24:29.329Z,28.22
2019-06-10T09:26:56.101Z,28.72
2019-06-10T09:29:22.761Z,28.97
2019-06-10T09:31:52.530Z,29.08
2019-06-10T09:34:18.191Z,29.28
2019-06-10T09:36:47.978Z,28.79
2019-06-10T09:39:13.389Z,28.93
2019-06-10T09:41:45.221Z,28.76
2019-06-10T09:44:09.252Z,28.28
2019-06-10T09:46:38.379Z,28.79
2019-06-10T09:49:05.343Z,28.78
2019-06-10T09:51:32.593Z,29.40
2019-06-10T09:54:03.607Z,29.10
2019-06-10T09:56:28.281Z,29.38
2019-06-10T09:58:57.059Z,29.44
2019-06-10T10:01:24.688Z,29.26
2019-06-10T10:03:59.362Z,29.34
2019-06-10T10:06:23.557Z,29.17
2019-06-10T10:08:56.262Z,29.17
2019-06-10T10:11:18.761Z,29.02
2019-06-10T10:13:48.041Z,29.55
2019-06-10T10:16:14.623Z,29.36
2019-06-10T10:18:45.866Z,29.00
2019-06-10T10:21:10.107Z,29.59
2019-06-10T10:23:51.351Z,29.71
2019-06-10T10:26:05.895Z,29.74
2019-06-10T10:28:33.518Z,29.42
2019-06-10T10:31:03.539Z,30.03
2019-06-10T10:33:30.836Z,29.84
2019-06-10T10:35:57.897Z,30.08
2019-06-10T10:38:24.753Z,30.09
2019-06-10T10:40:56.436Z,30.02
2019-06-10T10:43:28.994Z,29.79
2019-06-10T10:45:51.799Z,30.13
2019-06-10T10:48:18.648Z,30.15
2019-06-10T10:50:47.401Z,30.05
2019-06-10T10:53:14.591Z,30.48
2019-06-10T10:55:42.526Z,30.79
2019-06-10T10:58:12.722Z,30.54
2019-06-10T11:00:45.400Z,30.11
2019-06-10T11:03:13.352Z,30.11
2019-06-10T11:05:40.910Z,30.22
2019-06-10T11:08:08.208Z,29.81
2019-06-10T11:10:35.406Z,30.29
2019-06-10T11:13:06.584Z,30.22
2019-06-10T11:15:33.924Z,30.61
2019-06-10T11:18:03.825Z,30.45
2019-06-10T11:20:33.499Z,30.26
2019-06-10T11:22:59.827Z,30.48
2019-06-10T11:25:26.391Z,30.10
2019-06-10T11:27:55.717Z,30.56
2019-06-10T11:30:23.505Z,30.92
2019-06-10T11:32:53.545Z,30.75
2019-06-10T11:35:19.742Z,31.06
2019-06-10T11:37:46.824Z,30.64
2019-06-10T11:40:14.171Z,30.65
2019-06-10T11:42:43.529Z,30.90
2019-06-10T11:45:11.643Z,30.87
2019-06-10T11:47:38.624Z,30.82
2019-06-10T11:50:06.245Z,30.63
2019-06-10T11:52:33.611Z,30.29
2019-06-10T11:55:11.903Z,30.53
2019-06-10T11:57:29.072Z,30.76
2019-06-10T11:59:56.579Z,31.20
2019-06-10T12:02:24.386Z,31.04
2019-06-10T12:04:53.368Z,31.28
2019-06-10T12:07:22.233Z,31.30
2019-06-10T12:09:48.963Z,31.36
2019-06-10T12:12:15.783Z,31.58
2019-06-10T12:14:43.149Z,31.08
2019-06-10T12:17:24.693Z,31.36
2019-06-10T12:19:38.890Z,30.87
2019-06-10T12:22:07.634Z,30.90
2019-06-10T12:24:34.430Z,30.90
2019-06-10T12:27:04.811Z,30.88
2019-06-10T12:29:30.053Z,31.28
2019-06-10T12:32:01.220Z,31.42
2019-06-10T12:34:25.322Z,30.97
2019-06-10T12:36:56.227Z,31.25
2019-06-10T12:39:22.878Z,31.36
2019-06-10T12:41:49.085Z,31.12
2019-06-10T12:44:15.939Z,31.03
2019-06-10T12:46:43.330Z,31.44
2019-06-10T12:49:12.839Z,31.46
2019-06-10T12:51:39.213Z,31.19
2019-06-10T12:54:06.610Z,31.30
2019-06-10T12:56:33.796Z,31.37
2019-06-10T12:59:02.828Z,31.57
2019-06-10T13:01:29.468Z,31.48
2019-06-10T13:03:57.541Z,31.48
2019-06-10T13:06:26.435Z,31.46
2019-06-10T13:08:56.307Z,31.48
2019-06-10T13:11:24.505Z,31.93
2019-06-10T13:13:53.050Z,31.69
2019-06-10T13:16:19.966Z,31.69
2019-06-10T13:18:46.628Z,31.37
2019-06-10T13:21:17.413Z,31.38
2019-06-10T13:23:43.225Z,31.22
2019-06-10T13:26:15.264Z,31.37
2019-06-10T13:28:39.235Z,31.65
2019-06-10T13:31:08.404Z,31.74
2019-06-10T13:33:35.944Z,31.89
2019-06-10T13:36:06.394Z,31.66
2019-06-10T13:38:33.200Z,32.03
2019-06-10T13:41:01.735Z,32.20
2019-06-10T13:43:28.900Z,32.26
2019-06-10T13:45:55.731Z,32.32
2019-06-10T13:48:23.310Z,32.20
2019-06-10T13:50:52.858Z,32.43
2019-06-10T13:53:19.984Z,32.35
2019-06-10T13:55:46.745Z,32.63
2019-06-10T13:58:14.712Z,32.18
2019-06-10T14:00:46.260Z,32.14
2019-06-10T14:03:15.851Z,32.07
2019-06-10T14:05:38.908Z,31.87
2019-06-10T14:08:09.361Z,31.85
2019-06-10T14:10:35.328Z,31.62
2019-06-10T14:13:03.988Z,32.03
2019-06-10T14:15:32.910Z,31.62
2019-06-10T14:18:01.115Z,31.76
2019-06-10T14:20:28.535Z,32.42
2019-06-10T14:22:55.206Z,32.34
2019-06-10T14:25:23.254Z,32.40
2019-06-10T14:27:53.176Z,31.77
2019-06-10T14:30:20.008Z,32.56
2019-06-10T14:32:46.601Z,32.78
2019-06-10T14:35:17.233Z,32.11
2019-06-10T14:37:43.139Z,32.50
2019-06-10T14:40:18.528Z,32.08
2019-06-10T14:42:39.439Z,31.98
2019-06-10T14:45:08.690Z,32.14
2019-06-10T14:47:36.067Z,31.94
2019-06-10T14:50:10.893Z,31.97
2019-06-10T14:52:38.250Z,32.38
2019-06-10T14:55:07.200Z,32.16
2019-06-10T14:57:34.057Z,32.39
2019-06-10T15:00:02.936Z,32.45
2019-06-10T15:02:29.991Z,32.57
2019-06-10T15:04:59.367Z,32.24
2019-06-10T15:07:26.018Z,32.70
2019-06-10T15:09:52.765Z,32.73
2019-06-10T15:12:20.638Z,33.13
2019-06-10T15:14:48.173Z,33.33
2019-06-10T15:17:16.673Z,33.43
2019-06-10T15:19:43.636Z,33.13
2019-06-10T15:22:12.645Z,32.85
2019-06-10T15:24:39.189Z,32.72
2019-06-10T15:27:13.130Z,32.33
2019-06-10T15:29:34.813Z,32.25
2019-06-10T15:32:10.500Z,32.60
2019-06-10T15:34:32.552Z,32.09
2019-06-10T15:36:59.017Z,32.16
2019-06-10T15:39:25.695Z,31.78
2019-06-10T15:41:52.420Z,31.85
2019-06-10T15:44:37.245Z,32.07
2019-06-10T15:46:52.459Z,31.81
2019-06-10T15:49:21.814Z,31.84
2019-06-10T15:51:48.521Z,31.59
2019-06-10T15:54:17.342Z,31.38
2019-06-10T15:56:49.908Z,31.56
2019-06-10T15:59:14.919Z,31.71
2019-06-10T16:01:42.572Z,31.48
2019-06-10T16:04:09.211Z,31.42
2019-06-10T16:06:35.888Z,31.39
2019-06-10T16:09:06.692Z,31.32
2019-06-10T16:11:35.196Z,31.43
2019-06-10T16:14:02.880Z,31.46
2019-06-10T16:16:32.421Z,31.23
2019-06-10T16:18:58.962Z,31.30
2019-06-10T16:21:25.775Z,31.10
2019-06-10T16:23:53.378Z,31.05
2019-06-10T16:26:20.295Z,30.96
2019-06-10T16:28:47.193Z,31.07
2019-06-10T16:31:15.278Z,31.31
2019-06-10T16:33:49.325Z,30.95
2019-06-10T16:36:12.242Z,30.73
2019-06-10T16:38:39.162Z,30.90
2019-06-10T16:41:05.944Z,30.85
2019-06-10T16:43:33.693Z,30.93
2019-06-10T16:46:03.066Z,30.76
2019-06-10T16:49:26.984Z,31.16
2019-06-10T16:51:53.632Z,31.04
2019-06-10T16:54:23.591Z,30.74
2019-06-10T16:56:49.310Z,30.86
2019-06-10T16:59:16.065Z,30.57
2019-06-10T17:01:43.022Z,30.23
2019-06-10T17:04:12.281Z,30.44
2019-06-10T17:06:38.272Z,30.08
2019-06-10T17:09:07.253Z,29.90
2019-06-10T17:11:35.179Z,29.83
2019-06-10T17:14:03.316Z,30.04
2019-06-10T17:16:30.074Z,30.02
2019-06-10T17:18:56.683Z,29.89
2019-06-10T17:21:27.983Z,29.76
2019-06-10T17:23:52.534Z,29.93
2019-06-10T17:26:23.738Z,29.76
2019-06-10T17:28:48.426Z,29.40
2019-06-10T17:31:15.846Z,29.20
2019-06-10T17:33:42.870Z,29.34
2019-06-10T17:36:12.459Z,29.09
2019-06-10T17:38:38.502Z,29.02
2019-06-10T17:41:05.414Z,29.06
2019-06-10T17:43:34.200Z,29.06
2019-06-10T17:46:03.130Z,28.96
2019-06-10T17:48:31.389Z,29.04
2019-06-10T17:50:59.188Z,28.72
2019-06-10T17:53:26.184Z,28.88
2019-06-10T17:55:53.207Z,29.02
2019-06-10T17:58:33.498Z,28.87
2019-06-10T18:00:48.948Z,28.74
2019-06-10T18:03:15.733Z,28.67
2019-06-10T18:05:42.682Z,28.52
2019-06-10T18:08:09.566Z,28.70
2019-06-10T18:10:36.361Z,28.56
2019-06-10T18:13:42.907Z,28.38
2019-06-10T18:16:09.452Z,28.26
2019-06-10T18:18:37.288Z,28.20
2019-06-10T18:21:04.657Z,28.15
2019-06-10T18:23:31.383Z,28.15
2019-06-10T18:25:58.053Z,27.99
2019-06-10T18:28:24.996Z,27.89
2019-06-10T18:30:53.286Z,27.79
2019-06-10T18:33:23.107Z,27.92
2019-06-10T18:35:49.270Z,27.85
2019-06-10T18:39:15.342Z,27.87
2019-06-10T18:41:43.870Z,27.86
2019-06-10T18:44:22.006Z,27.55
2019-06-10T18:46:43.387Z,27.52
2019-06-10T18:49:13.291Z,27.52
2019-06-10T18:51:39.937Z,27.27
2019-06-10T18:54:09.915Z,27.32
2019-06-10T18:56:37.434Z,26.99
2019-06-10T18:59:16.732Z,26.97
2019-06-10T19:01:36.834Z,27.03
2019-06-10T19:04:05.883Z,26.93
2019-06-10T19:06:36.524Z,26.84
2019-06-10T19:09:12.607Z,26.88
2019-06-10T19:11:40.070Z,26.73
2019-06-10T19:14:08.972Z,26.74
2019-06-10T19:16:42.953Z,26.77
2019-06-10T19:19:12.505Z,26.64
2019-06-10T19:21:44.393Z,26.48
2019-06-10T19:24:12.982Z,26.43
2019-06-10T19:26:42.650Z,26.35
2019-06-10T19:29:09.902Z,26.35
2019-06-10T19:31:39.774Z,26.28
2019-06-10T19:35:03.142Z,26.15
2019-06-10T19:37:34.364Z,26.01
2019-06-10T19:40:04.342Z,25.93
2019-06-10T19:42:34.442Z,25.92
2019-06-10T19:46:00.479Z,25.96
2019-06-10T19:48:28.455Z,25.85
2019-06-10T19:50:57.133Z,25.71
2019-06-10T19:53:26.837Z,25.73
2019-06-10T19:55:53.514Z,25.63
2019-06-10T19:58:22.996Z,25.68
2019-06-10T20:00:54.037Z,25.63
2019-06-10T20:03:19.252Z,25.54
2019-06-10T20:05:46.988Z,25.57
2019-06-10T20:08:15.574Z,25.55
2019-06-10T20:10:42.553Z,25.40
2019-06-10T20:13:10.900Z,25.37
2019-06-10T20:15:46.669Z,25.21
2019-06-10T20:18:14.063Z,25.14
2019-06-10T20:20:45.643Z,25.22
2019-06-10T20:23:16.400Z,25.29
2019-06-10T20:25:46.753Z,25.05
2019-06-10T20:28:14.268Z,25.12
2019-06-10T20:30:43.851Z,24.82
2019-06-10T20:33:13.486Z,24.93
2019-06-10T20:35:42.085Z,24.78
2019-06-10T20:38:08.437Z,24.60
2019-06-10T20:40:35.692Z,24.81
2019-06-10T20:43:03.326Z,24.71
2019-06-10T20:45:32.915Z,24.68
2019-06-10T20:47:58.963Z,24.60
2019-06-10T20:50:25.899Z,24.62
2019-06-10T20:52:52.624Z,24.53
2019-06-10T20:55:19.476Z,24.42
2019-06-10T20:57:56.604Z,24.53
2019-06-10T21:00:23.703Z,24.44
2019-06-10T21:02:51.000Z,24.34
2019-06-10T21:05:18.117Z,24.12
2019-06-10T21:07:46.884Z,24.35
2019-06-10T21:10:22.147Z,24.33
2019-06-10T21:12:49.780Z,24.25
2019-06-10T21:15:18.616Z,24.23
2019-06-10T21:17:46.350Z,24.27
2019-06-10T21:20:14.318Z,24.35
2019-06-10T21:22:42.993Z,24.21
2019-06-10T21:25:09.754Z,24.20
2019-06-10T21:27:36.465Z,24.18
2019-06-10T21:30:11.340Z,24.13
2019-06-10T21:32:34.842Z,24.09
2019-06-10T21:35:04.454Z,24.01
2019-06-10T21:37:32.009Z,24.18
2019-06-10T21:39:58.946Z,24.25
2019-06-10T21:42:25.563Z,24.19
2019-06-10T21:44:52.446Z,24.06
2019-06-10T21:47:19.322Z,23.98
2019-06-10T21:49:46.963Z,24.00
2019-06-10T21:52:14.297Z,24.02
2019-06-10T21:54:42.591Z,23.84
2019-06-10T21:57:09.828Z,23.78
2019-06-10T21:59:36.609Z,23.82
2019-06-10T22:02:03.723Z,23.80
2019-06-10T22:04:32.511Z,23.68
2019-06-10T22:06:58.839Z,23.64
2019-06-10T22:09:25.491Z,23.82
2019-06-10T22:11:52.944Z,23.56
2019-06-10T22:14:22.445Z,23.51
2019-06-10T22:16:50.917Z,23.59
2019-06-10T22:19:18.045Z,23.54
2019-06-10T22:21:44.787Z,23.44
2019-06-10T22:24:12.546Z,23.44
2019-06-10T22:26:39.617Z,23.38
2019-06-10T22:29:06.292Z,23.41
2019-06-10T22:31:32.884Z,23.50
2019-06-10T22:34:00.691Z,23.43
2019-06-10T22:36:28.222Z,23.33
2019-06-10T22:38:57.740Z,23.25
2019-06-10T22:41:23.576Z,23.47
2019-06-10T22:43:51.436Z,23.26
2019-06-10T22:46:18.772Z,23.19
2019-06-10T22:48:46.876Z,23.16
2019-06-10T22:51:14.061Z,23.05
2019-06-10T22:53:42.516Z,23.12
2019-06-10T22:56:09.464Z,23.09
2019-06-10T22:58:36.107Z,23.00
2019-06-10T23:01:04.267Z,22.93
2019-06-10T23:03:31.472Z,22.95
2019-06-10T23:05:59.466Z,22.94
2019-06-10T23:08:26.208Z,22.87
2019-06-10T23:10:53.778Z,22.87
2019-06-10T23:13:23.131Z,22.86
2019-06-10T23:15:53.500Z,22.83
2019-06-10T23:18:19.665Z,22.87
2019-06-10T23:20:46.415Z,22.84
2019-06-10T23:23:13.172Z,22.78
2019-06-10T23:25:39.836Z,22.80
2019-06-10T23:28:06.452Z,22.75
2019-06-10T23:30:33.135Z,22.85
2019-06-10T23:33:00.841Z,22.70
2019-06-10T23:35:27.691Z,22.61
2019-06-10T23:37:56.894Z,22.52
2019-06-10T23:40:23.379Z,22.50
2019-06-10T23:42:50.824Z,22.43
2019-06-10T23:45:17.638Z,22.51
2019-06-10T23:47:44.357Z,22.46
2019-06-10T23:50:12.924Z,22.49
2019-06-10T23:52:40.074Z,22.50
2019-06-10T23:55:07.727Z,22.60
2019-06-10T23:57:34.337Z,22.43
